sensor_id;sensor_type;location;lat;lon;timestamp;P1;durP1;ratioP1;P2;durP2;ratioP2
16845;SDS011;8539;53.188;8.696;2023-02-27T00:00:59;6.90;;;4.75;;
16845;SDS011;8539;53.188;8.696;2023-02-27T00:03:31;8.68;;;5.65;;
16845;SDS011;8539;53.188;8.696;2023-02-27T00:05:58;13.15;;;5.93;;
16845;SDS011;8539;53.188;8.696;2023-02-27T00:08:24;10.20;;;4.90;;
16845;SDS011;8539;53.188;8.696;2023-02-27T00:10:51;12.07;;;4.85;;
16845;SDS011;8539;53.188;8.696;2023-02-27T00:13:18;9.23;;;4.25;;
16845;SDS011;8539;53.188;8.696;2023-02-27T00:15:46;8.15;;;4.65;;
16845;SDS011;8539;53.188;8.696;2023-02-27T00:18:14;5.10;;;3.60;;
16845;SDS011;8539;53.188;8.696;2023-02-27T00:20:42;7.28;;;4.15;;
16845;SDS011;8539;53.188;8.696;2023-02-27T00:23:09;9.80;;;4.50;;
16845;SDS011;8539;53.188;8.696;2023-02-27T00:25:36;7.80;;;4.18;;
16845;SDS011;8539;53.188;8.696;2023-02-27T00:28:03;6.63;;;4.05;;
16845;SDS011;8539;53.188;8.696;2023-02-27T00:30:34;7.03;;;3.83;;
16845;SDS011;8539;53.188;8.696;2023-02-27T00:33:03;6.97;;;3.63;;
16845;SDS011;8539;53.188;8.696;2023-02-27T00:35:30;7.50;;;3.58;;
16845;SDS011;8539;53.188;8.696;2023-02-27T00:37:56;9.25;;;3.78;;
16845;SDS011;8539;53.188;8.696;2023-02-27T00:40:25;6.35;;;3.47;;
16845;SDS011;8539;53.188;8.696;2023-02-27T00:42:51;4.93;;;3.75;;
16845;SDS011;8539;53.188;8.696;2023-02-27T00:45:18;5.80;;;3.85;;
16845;SDS011;8539;53.188;8.696;2023-02-27T00:47:45;5.82;;;4.18;;
16845;SDS011;8539;53.188;8.696;2023-02-27T00:50:12;4.50;;;3.28;;
16845;SDS011;8539;53.188;8.696;2023-02-27T00:52:40;11.18;;;4.82;;
16845;SDS011;8539;53.188;8.696;2023-02-27T00:55:07;9.77;;;4.15;;
16845;SDS011;8539;53.188;8.696;2023-02-27T00:57:35;6.45;;;3.33;;
16845;SDS011;8539;53.188;8.696;2023-02-27T01:00:02;5.38;;;3.53;;
16845;SDS011;8539;53.188;8.696;2023-02-27T01:02:30;6.88;;;4.65;;
16845;SDS011;8539;53.188;8.696;2023-02-27T01:05:00;4.40;;;3.55;;
16845;SDS011;8539;53.188;8.696;2023-02-27T01:07:26;7.97;;;3.40;;
16845;SDS011;8539;53.188;8.696;2023-02-27T01:09:52;6.82;;;4.28;;
16845;SDS011;8539;53.188;8.696;2023-02-27T01:12:18;7.38;;;3.95;;
16845;SDS011;8539;53.188;8.696;2023-02-27T01:14:44;6.18;;;3.83;;
16845;SDS011;8539;53.188;8.696;2023-02-27T01:17:10;13.23;;;4.43;;
16845;SDS011;8539;53.188;8.696;2023-02-27T01:19:36;6.35;;;3.72;;
16845;SDS011;8539;53.188;8.696;2023-02-27T01:22:03;5.55;;;3.33;;
16845;SDS011;8539;53.188;8.696;2023-02-27T01:24:29;5.45;;;3.47;;
16845;SDS011;8539;53.188;8.696;2023-02-27T01:26:55;6.30;;;3.42;;
16845;SDS011;8539;53.188;8.696;2023-02-27T01:29:21;7.50;;;4.03;;
16845;SDS011;8539;53.188;8.696;2023-02-27T01:31:47;7.95;;;3.53;;
16845;SDS011;8539;53.188;8.696;2023-02-27T01:34:14;4.32;;;3.38;;
16845;SDS011;8539;53.188;8.696;2023-02-27T01:36:40;6.15;;;3.35;;
16845;SDS011;8539;53.188;8.696;2023-02-27T01:39:06;6.22;;;4.40;;
16845;SDS011;8539;53.188;8.696;2023-02-27T01:41:32;8.20;;;3.95;;
16845;SDS011;8539;53.188;8.696;2023-02-27T01:44:09;4.25;;;3.83;;
16845;SDS011;8539;53.188;8.696;2023-02-27T01:46:37;5.75;;;4.03;;
16845;SDS011;8539;53.188;8.696;2023-02-27T01:51:41;5.57;;;4.00;;
16845;SDS011;8539;53.188;8.696;2023-02-27T01:54:11;4.93;;;3.60;;
16845;SDS011;8539;53.188;8.696;2023-02-27T01:56:43;5.05;;;3.65;;
16845;SDS011;8539;53.188;8.696;2023-02-27T01:59:10;9.55;;;5.32;;
16845;SDS011;8539;53.188;8.696;2023-02-27T02:01:37;6.68;;;4.13;;
16845;SDS011;8539;53.188;8.696;2023-02-27T02:06:49;8.55;;;3.70;;
16845;SDS011;8539;53.188;8.696;2023-02-27T02:09:21;6.07;;;3.90;;
16845;SDS011;8539;53.188;8.696;2023-02-27T02:11:48;6.88;;;4.13;;
16845;SDS011;8539;53.188;8.696;2023-02-27T02:14:15;7.20;;;4.43;;
16845;SDS011;8539;53.188;8.696;2023-02-27T02:16:48;7.03;;;4.18;;
16845;SDS011;8539;53.188;8.696;2023-02-27T02:19:46;9.15;;;3.83;;
16845;SDS011;8539;53.188;8.696;2023-02-27T02:30:33;9.00;;;4.47;;
16845;SDS011;8539;53.188;8.696;2023-02-27T02:50:23;8.38;;;4.95;;
16845;SDS011;8539;53.188;8.696;2023-02-27T02:53:20;7.63;;;4.05;;
16845;SDS011;8539;53.188;8.696;2023-02-27T02:56:22;8.38;;;4.35;;
16845;SDS011;8539;53.188;8.696;2023-02-27T02:59:28;6.22;;;3.72;;
16845;SDS011;8539;53.188;8.696;2023-02-27T03:02:06;6.38;;;4.15;;
16845;SDS011;8539;53.188;8.696;2023-02-27T03:04:45;9.57;;;4.10;;
16845;SDS011;8539;53.188;8.696;2023-02-27T03:07:23;6.65;;;3.95;;
16845;SDS011;8539;53.188;8.696;2023-02-27T03:12:21;8.93;;;3.95;;
16845;SDS011;8539;53.188;8.696;2023-02-27T03:14:51;7.88;;;4.63;;
16845;SDS011;8539;53.188;8.696;2023-02-27T03:17:35;9.73;;;4.70;;
16845;SDS011;8539;53.188;8.696;2023-02-27T03:20:24;8.05;;;4.22;;
16845;SDS011;8539;53.188;8.696;2023-02-27T03:23:02;10.07;;;4.72;;
16845;SDS011;8539;53.188;8.696;2023-02-27T03:25:34;10.13;;;3.88;;
16845;SDS011;8539;53.188;8.696;2023-02-27T03:28:05;7.30;;;5.00;;
16845;SDS011;8539;53.188;8.696;2023-02-27T03:30:36;6.68;;;5.43;;
16845;SDS011;8539;53.188;8.696;2023-02-27T03:33:27;7.75;;;3.60;;
16845;SDS011;8539;53.188;8.696;2023-02-27T03:38:39;8.02;;;5.40;;
16845;SDS011;8539;53.188;8.696;2023-02-27T03:46:22;18.73;;;4.68;;
16845;SDS011;8539;53.188;8.696;2023-02-27T03:48:50;6.88;;;3.83;;
16845;SDS011;8539;53.188;8.696;2023-02-27T03:51:18;10.77;;;4.10;;
16845;SDS011;8539;53.188;8.696;2023-02-27T03:56:40;8.20;;;4.07;;
16845;SDS011;8539;53.188;8.696;2023-02-27T03:59:07;10.43;;;4.55;;
16845;SDS011;8539;53.188;8.696;2023-02-27T04:01:33;11.63;;;4.90;;
16845;SDS011;8539;53.188;8.696;2023-02-27T04:04:00;10.82;;;4.90;;
16845;SDS011;8539;53.188;8.696;2023-02-27T04:06:30;8.70;;;4.97;;
16845;SDS011;8539;53.188;8.696;2023-02-27T04:14:38;8.88;;;4.55;;
16845;SDS011;8539;53.188;8.696;2023-02-27T04:17:15;6.97;;;4.75;;
16845;SDS011;8539;53.188;8.696;2023-02-27T04:22:48;10.85;;;5.35;;
16845;SDS011;8539;53.188;8.696;2023-02-27T04:35:50;9.70;;;6.03;;
16845;SDS011;8539;53.188;8.696;2023-02-27T04:38:27;11.52;;;6.25;;
16845;SDS011;8539;53.188;8.696;2023-02-27T04:41:06;9.10;;;6.57;;
16845;SDS011;8539;53.188;8.696;2023-02-27T04:43:38;16.45;;;6.55;;
16845;SDS011;8539;53.188;8.696;2023-02-27T04:46:06;9.10;;;6.35;;
16845;SDS011;8539;53.188;8.696;2023-02-27T04:48:50;10.48;;;6.40;;
16845;SDS011;8539;53.188;8.696;2023-02-27T04:51:55;10.20;;;5.97;;
16845;SDS011;8539;53.188;8.696;2023-02-27T04:54:33;12.55;;;6.93;;
16845;SDS011;8539;53.188;8.696;2023-02-27T04:57:07;9.35;;;6.30;;
16845;SDS011;8539;53.188;8.696;2023-02-27T04:59:38;8.98;;;6.10;;
16845;SDS011;8539;53.188;8.696;2023-02-27T05:04:38;10.45;;;6.28;;
16845;SDS011;8539;53.188;8.696;2023-02-27T05:07:10;11.65;;;7.05;;
16845;SDS011;8539;53.188;8.696;2023-02-27T05:09:47;10.95;;;6.63;;
16845;SDS011;8539;53.188;8.696;2023-02-27T05:13:05;8.15;;;6.00;;
16845;SDS011;8539;53.188;8.696;2023-02-27T05:15:13;15.90;;;6.43;;
16845;SDS011;8539;53.188;8.696;2023-02-27T05:17:58;11.23;;;6.95;;
16845;SDS011;8539;53.188;8.696;2023-02-27T05:20:42;13.50;;;6.28;;
16845;SDS011;8539;53.188;8.696;2023-02-27T05:26:26;18.08;;;7.78;;
16845;SDS011;8539;53.188;8.696;2023-02-27T05:31:29;18.83;;;5.75;;
16845;SDS011;8539;53.188;8.696;2023-02-27T05:34:03;9.13;;;6.25;;
16845;SDS011;8539;53.188;8.696;2023-02-27T05:39:05;11.38;;;6.32;;
16845;SDS011;8539;53.188;8.696;2023-02-27T05:41:36;14.73;;;7.22;;
16845;SDS011;8539;53.188;8.696;2023-02-27T05:44:09;14.98;;;6.55;;
16845;SDS011;8539;53.188;8.696;2023-02-27T05:46:45;13.93;;;6.70;;
16845;SDS011;8539;53.188;8.696;2023-02-27T05:49:30;9.82;;;6.47;;
16845;SDS011;8539;53.188;8.696;2023-02-27T05:51:59;14.05;;;7.88;;
16845;SDS011;8539;53.188;8.696;2023-02-27T05:54:36;13.50;;;6.85;;
16845;SDS011;8539;53.188;8.696;2023-02-27T05:57:10;11.02;;;7.07;;
16845;SDS011;8539;53.188;8.696;2023-02-27T05:59:43;12.55;;;7.10;;
16845;SDS011;8539;53.188;8.696;2023-02-27T06:02:19;11.75;;;7.22;;
16845;SDS011;8539;53.188;8.696;2023-02-27T06:04:45;12.63;;;8.00;;
16845;SDS011;8539;53.188;8.696;2023-02-27T06:07:13;16.33;;;7.75;;
16845;SDS011;8539;53.188;8.696;2023-02-27T06:09:40;15.55;;;8.32;;
16845;SDS011;8539;53.188;8.696;2023-02-27T06:12:08;14.25;;;7.68;;
16845;SDS011;8539;53.188;8.696;2023-02-27T06:14:34;13.27;;;8.40;;
16845;SDS011;8539;53.188;8.696;2023-02-27T06:17:00;14.40;;;8.15;;
16845;SDS011;8539;53.188;8.696;2023-02-27T06:19:26;14.82;;;8.27;;
16845;SDS011;8539;53.188;8.696;2023-02-27T06:21:52;12.80;;;8.07;;
16845;SDS011;8539;53.188;8.696;2023-02-27T06:24:17;19.52;;;8.50;;
16845;SDS011;8539;53.188;8.696;2023-02-27T06:26:44;10.88;;;7.93;;
16845;SDS011;8539;53.188;8.696;2023-02-27T06:29:10;12.98;;;8.20;;
16845;SDS011;8539;53.188;8.696;2023-02-27T06:31:37;14.75;;;9.65;;
16845;SDS011;8539;53.188;8.696;2023-02-27T06:34:03;15.18;;;8.15;;
16845;SDS011;8539;53.188;8.696;2023-02-27T06:36:29;14.57;;;8.75;;
16845;SDS011;8539;53.188;8.696;2023-02-27T06:38:55;15.80;;;9.00;;
16845;SDS011;8539;53.188;8.696;2023-02-27T06:41:22;23.67;;;8.57;;
16845;SDS011;8539;53.188;8.696;2023-02-27T06:43:48;12.43;;;7.93;;
16845;SDS011;8539;53.188;8.696;2023-02-27T06:46:14;19.13;;;9.45;;
16845;SDS011;8539;53.188;8.696;2023-02-27T06:48:40;13.60;;;9.00;;
16845;SDS011;8539;53.188;8.696;2023-02-27T06:51:06;18.33;;;8.40;;
16845;SDS011;8539;53.188;8.696;2023-02-27T06:53:32;15.65;;;9.73;;
16845;SDS011;8539;53.188;8.696;2023-02-27T06:55:58;13.77;;;9.00;;
16845;SDS011;8539;53.188;8.696;2023-02-27T06:58:24;15.75;;;10.23;;
16845;SDS011;8539;53.188;8.696;2023-02-27T07:00:50;16.02;;;10.30;;
16845;SDS011;8539;53.188;8.696;2023-02-27T07:03:17;16.38;;;9.55;;
16845;SDS011;8539;53.188;8.696;2023-02-27T07:05:43;16.45;;;11.13;;
16845;SDS011;8539;53.188;8.696;2023-02-27T07:08:09;13.95;;;9.20;;
16845;SDS011;8539;53.188;8.696;2023-02-27T07:10:36;22.40;;;10.13;;
16845;SDS011;8539;53.188;8.696;2023-02-27T07:13:03;17.05;;;13.05;;
16845;SDS011;8539;53.188;8.696;2023-02-27T07:15:29;14.93;;;10.27;;
16845;SDS011;8539;53.188;8.696;2023-02-27T07:17:56;18.45;;;11.73;;
16845;SDS011;8539;53.188;8.696;2023-02-27T07:20:22;17.05;;;10.15;;
16845;SDS011;8539;53.188;8.696;2023-02-27T07:22:48;16.77;;;10.93;;
16845;SDS011;8539;53.188;8.696;2023-02-27T07:25:14;21.17;;;12.85;;
16845;SDS011;8539;53.188;8.696;2023-02-27T07:27:40;22.02;;;13.93;;
16845;SDS011;8539;53.188;8.696;2023-02-27T07:30:10;19.02;;;13.60;;
16845;SDS011;8539;53.188;8.696;2023-02-27T07:32:36;20.10;;;12.07;;
16845;SDS011;8539;53.188;8.696;2023-02-27T07:35:02;12.80;;;8.60;;
16845;SDS011;8539;53.188;8.696;2023-02-27T07:37:29;13.93;;;8.63;;
16845;SDS011;8539;53.188;8.696;2023-02-27T07:39:55;11.93;;;6.30;;
16845;SDS011;8539;53.188;8.696;2023-02-27T07:42:21;9.50;;;5.00;;
16845;SDS011;8539;53.188;8.696;2023-02-27T07:44:47;7.63;;;5.00;;
16845;SDS011;8539;53.188;8.696;2023-02-27T07:47:13;5.65;;;4.78;;
16845;SDS011;8539;53.188;8.696;2023-02-27T07:49:39;9.43;;;4.90;;
16845;SDS011;8539;53.188;8.696;2023-02-27T07:52:05;11.25;;;4.13;;
16845;SDS011;8539;53.188;8.696;2023-02-27T07:54:32;8.70;;;4.43;;
16845;SDS011;8539;53.188;8.696;2023-02-27T07:56:58;12.25;;;4.72;;
16845;SDS011;8539;53.188;8.696;2023-02-27T07:59:24;5.07;;;3.63;;
16845;SDS011;8539;53.188;8.696;2023-02-27T08:01:50;7.07;;;3.85;;
16845;SDS011;8539;53.188;8.696;2023-02-27T08:04:16;6.95;;;4.65;;
16845;SDS011;8539;53.188;8.696;2023-02-27T08:06:42;9.60;;;4.50;;
16845;SDS011;8539;53.188;8.696;2023-02-27T08:09:09;8.48;;;5.20;;
16845;SDS011;8539;53.188;8.696;2023-02-27T08:11:35;10.88;;;4.25;;
16845;SDS011;8539;53.188;8.696;2023-02-27T08:14:01;8.70;;;3.67;;
16845;SDS011;8539;53.188;8.696;2023-02-27T08:16:27;14.80;;;4.57;;
16845;SDS011;8539;53.188;8.696;2023-02-27T08:18:53;7.78;;;4.10;;
16845;SDS011;8539;53.188;8.696;2023-02-27T08:21:19;10.00;;;4.18;;
16845;SDS011;8539;53.188;8.696;2023-02-27T08:23:45;7.72;;;4.18;;
16845;SDS011;8539;53.188;8.696;2023-02-27T08:26:12;8.77;;;4.18;;
16845;SDS011;8539;53.188;8.696;2023-02-27T08:28:38;8.98;;;3.75;;
16845;SDS011;8539;53.188;8.696;2023-02-27T08:31:05;12.88;;;4.07;;
16845;SDS011;8539;53.188;8.696;2023-02-27T08:33:31;10.27;;;3.38;;
16845;SDS011;8539;53.188;8.696;2023-02-27T08:35:58;9.80;;;4.13;;
16845;SDS011;8539;53.188;8.696;2023-02-27T08:38:24;9.23;;;3.60;;
16845;SDS011;8539;53.188;8.696;2023-02-27T08:40:50;6.32;;;3.15;;
16845;SDS011;8539;53.188;8.696;2023-02-27T08:43:20;4.35;;;3.05;;
16845;SDS011;8539;53.188;8.696;2023-02-27T08:45:47;5.22;;;3.03;;
16845;SDS011;8539;53.188;8.696;2023-02-27T08:48:13;8.55;;;3.50;;
16845;SDS011;8539;53.188;8.696;2023-02-27T08:50:41;6.55;;;3.17;;
16845;SDS011;8539;53.188;8.696;2023-02-27T08:53:07;5.25;;;2.67;;
16845;SDS011;8539;53.188;8.696;2023-02-27T08:55:34;8.68;;;3.35;;
16845;SDS011;8539;53.188;8.696;2023-02-27T08:58:00;5.22;;;2.92;;
16845;SDS011;8539;53.188;8.696;2023-02-27T09:00:26;7.18;;;2.88;;
16845;SDS011;8539;53.188;8.696;2023-02-27T09:02:53;8.70;;;2.80;;
16845;SDS011;8539;53.188;8.696;2023-02-27T09:05:19;15.27;;;2.92;;
16845;SDS011;8539;53.188;8.696;2023-02-27T09:07:47;6.43;;;2.38;;
16845;SDS011;8539;53.188;8.696;2023-02-27T09:10:13;8.82;;;2.92;;
16845;SDS011;8539;53.188;8.696;2023-02-27T09:12:40;5.20;;;2.38;;
16845;SDS011;8539;53.188;8.696;2023-02-27T09:15:07;7.15;;;2.17;;
16845;SDS011;8539;53.188;8.696;2023-02-27T09:17:34;5.55;;;2.38;;
16845;SDS011;8539;53.188;8.696;2023-02-27T09:20:00;4.57;;;2.08;;
16845;SDS011;8539;53.188;8.696;2023-02-27T09:22:26;5.88;;;2.60;;
16845;SDS011;8539;53.188;8.696;2023-02-27T09:24:52;7.78;;;2.58;;
16845;SDS011;8539;53.188;8.696;2023-02-27T09:27:18;4.88;;;2.85;;
16845;SDS011;8539;53.188;8.696;2023-02-27T09:29:44;6.72;;;3.17;;
16845;SDS011;8539;53.188;8.696;2023-02-27T09:32:10;8.38;;;1.98;;
16845;SDS011;8539;53.188;8.696;2023-02-27T09:34:36;8.40;;;2.00;;
16845;SDS011;8539;53.188;8.696;2023-02-27T09:37:02;5.72;;;2.20;;
16845;SDS011;8539;53.188;8.696;2023-02-27T09:39:28;7.63;;;2.03;;
16845;SDS011;8539;53.188;8.696;2023-02-27T09:44:37;5.20;;;2.00;;
16845;SDS011;8539;53.188;8.696;2023-02-27T09:47:05;9.20;;;2.17;;
16845;SDS011;8539;53.188;8.696;2023-02-27T09:49:43;4.90;;;1.90;;
16845;SDS011;8539;53.188;8.696;2023-02-27T09:52:18;9.35;;;1.92;;
16845;SDS011;8539;53.188;8.696;2023-02-27T09:54:44;3.78;;;1.88;;
16845;SDS011;8539;53.188;8.696;2023-02-27T09:57:36;7.22;;;1.90;;
16845;SDS011;8539;53.188;8.696;2023-02-27T10:00:04;5.53;;;2.33;;
16845;SDS011;8539;53.188;8.696;2023-02-27T10:03:05;5.63;;;1.88;;
16845;SDS011;8539;53.188;8.696;2023-02-27T10:10:47;5.07;;;1.52;;
16845;SDS011;8539;53.188;8.696;2023-02-27T10:16:31;4.90;;;1.90;;
16845;SDS011;8539;53.188;8.696;2023-02-27T10:19:02;7.93;;;2.70;;
16845;SDS011;8539;53.188;8.696;2023-02-27T10:21:35;7.68;;;2.75;;
16845;SDS011;8539;53.188;8.696;2023-02-27T10:24:16;11.60;;;2.60;;
16845;SDS011;8539;53.188;8.696;2023-02-27T10:27:18;5.72;;;2.67;;
16845;SDS011;8539;53.188;8.696;2023-02-27T10:29:46;5.32;;;2.67;;
16845;SDS011;8539;53.188;8.696;2023-02-27T10:34:44;7.10;;;2.65;;
16845;SDS011;8539;53.188;8.696;2023-02-27T10:37:32;10.35;;;3.42;;
16845;SDS011;8539;53.188;8.696;2023-02-27T10:40:02;5.35;;;2.03;;
16845;SDS011;8539;53.188;8.696;2023-02-27T10:42:35;8.95;;;2.60;;
16845;SDS011;8539;53.188;8.696;2023-02-27T10:45:03;5.57;;;2.00;;
16845;SDS011;8539;53.188;8.696;2023-02-27T10:47:29;7.07;;;2.63;;
16845;SDS011;8539;53.188;8.696;2023-02-27T10:49:56;6.13;;;1.90;;
16845;SDS011;8539;53.188;8.696;2023-02-27T10:52:24;3.33;;;1.42;;
16845;SDS011;8539;53.188;8.696;2023-02-27T10:54:51;2.30;;;1.27;;
16845;SDS011;8539;53.188;8.696;2023-02-27T11:00:02;3.53;;;2.03;;
16845;SDS011;8539;53.188;8.696;2023-02-27T11:02:37;5.40;;;1.67;;
16845;SDS011;8539;53.188;8.696;2023-02-27T11:05:26;8.27;;;1.98;;
16845;SDS011;8539;53.188;8.696;2023-02-27T11:10:52;3.22;;;1.58;;
16845;SDS011;8539;53.188;8.696;2023-02-27T11:13:30;4.82;;;1.52;;
16845;SDS011;8539;53.188;8.696;2023-02-27T11:18:29;3.80;;;1.58;;
16845;SDS011;8539;53.188;8.696;2023-02-27T11:23:37;2.08;;;1.48;;
16845;SDS011;8539;53.188;8.696;2023-02-27T11:31:44;6.50;;;1.45;;
16845;SDS011;8539;53.188;8.696;2023-02-27T11:37:01;4.22;;;1.52;;
16845;SDS011;8539;53.188;8.696;2023-02-27T11:39:34;2.92;;;1.58;;
16845;SDS011;8539;53.188;8.696;2023-02-27T11:42:15;4.53;;;1.75;;
16845;SDS011;8539;53.188;8.696;2023-02-27T11:44:58;3.50;;;1.83;;
16845;SDS011;8539;53.188;8.696;2023-02-27T11:47:29;5.03;;;1.45;;
16845;SDS011;8539;53.188;8.696;2023-02-27T11:52:57;1.98;;;0.80;;
16845;SDS011;8539;53.188;8.696;2023-02-27T11:55:45;4.55;;;2.10;;
16845;SDS011;8539;53.188;8.696;2023-02-27T11:58:15;4.20;;;1.98;;
16845;SDS011;8539;53.188;8.696;2023-02-27T12:05:59;7.35;;;2.33;;
16845;SDS011;8539;53.188;8.696;2023-02-27T12:08:40;5.38;;;1.85;;
16845;SDS011;8539;53.188;8.696;2023-02-27T12:11:15;5.70;;;1.70;;
16845;SDS011;8539;53.188;8.696;2023-02-27T12:13:57;4.45;;;1.38;;
16845;SDS011;8539;53.188;8.696;2023-02-27T12:16:42;2.05;;;1.30;;
16845;SDS011;8539;53.188;8.696;2023-02-27T12:21:52;4.75;;;1.65;;
16845;SDS011;8539;53.188;8.696;2023-02-27T12:30:15;6.45;;;1.50;;
16845;SDS011;8539;53.188;8.696;2023-02-27T12:36:02;5.63;;;1.50;;
16845;SDS011;8539;53.188;8.696;2023-02-27T12:38:29;5.80;;;1.50;;
16845;SDS011;8539;53.188;8.696;2023-02-27T12:51:51;2.95;;;1.35;;
16845;SDS011;8539;53.188;8.696;2023-02-27T12:57:27;1.08;;;0.90;;
16845;SDS011;8539;53.188;8.696;2023-02-27T13:00:19;3.58;;;1.52;;
16845;SDS011;8539;53.188;8.696;2023-02-27T13:10:15;3.90;;;1.55;;
16845;SDS011;8539;53.188;8.696;2023-02-27T13:12:49;3.22;;;1.20;;
16845;SDS011;8539;53.188;8.696;2023-02-27T13:15:24;2.08;;;1.17;;
16845;SDS011;8539;53.188;8.696;2023-02-27T13:20:39;4.63;;;1.60;;
16845;SDS011;8539;53.188;8.696;2023-02-27T13:23:17;5.45;;;1.92;;
16845;SDS011;8539;53.188;8.696;2023-02-27T13:25:55;2.58;;;1.30;;
16845;SDS011;8539;53.188;8.696;2023-02-27T13:28:26;5.03;;;1.60;;
16845;SDS011;8539;53.188;8.696;2023-02-27T13:31:03;2.88;;;1.25;;
16845;SDS011;8539;53.188;8.696;2023-02-27T13:33:48;2.60;;;1.30;;
16845;SDS011;8539;53.188;8.696;2023-02-27T13:36:29;3.28;;;1.60;;
16845;SDS011;8539;53.188;8.696;2023-02-27T13:39:00;5.30;;;1.75;;
16845;SDS011;8539;53.188;8.696;2023-02-27T13:43:53;3.95;;;1.30;;
16845;SDS011;8539;53.188;8.696;2023-02-27T13:46:29;6.32;;;1.35;;
16845;SDS011;8539;53.188;8.696;2023-02-27T13:49:20;3.22;;;1.50;;
16845;SDS011;8539;53.188;8.696;2023-02-27T13:51:48;4.18;;;1.55;;
16845;SDS011;8539;53.188;8.696;2023-02-27T13:56:45;5.35;;;1.48;;
16845;SDS011;8539;53.188;8.696;2023-02-27T13:59:28;4.38;;;1.52;;
16845;SDS011;8539;53.188;8.696;2023-02-27T14:04:48;3.45;;;1.30;;
16845;SDS011;8539;53.188;8.696;2023-02-27T14:07:20;5.30;;;1.38;;
16845;SDS011;8539;53.188;8.696;2023-02-27T14:09:49;2.92;;;1.45;;
16845;SDS011;8539;53.188;8.696;2023-02-27T14:12:35;4.70;;;1.58;;
16845;SDS011;8539;53.188;8.696;2023-02-27T14:17:50;2.20;;;1.50;;
16845;SDS011;8539;53.188;8.696;2023-02-27T14:25:54;3.22;;;1.25;;
16845;SDS011;8539;53.188;8.696;2023-02-27T14:28:42;3.95;;;1.60;;
16845;SDS011;8539;53.188;8.696;2023-02-27T14:33:51;4.28;;;1.20;;
16845;SDS011;8539;53.188;8.696;2023-02-27T14:36:27;4.18;;;1.23;;
16845;SDS011;8539;53.188;8.696;2023-02-27T14:38:56;5.78;;;1.10;;
16845;SDS011;8539;53.188;8.696;2023-02-27T14:44:20;2.67;;;1.17;;
16845;SDS011;8539;53.188;8.696;2023-02-27T14:46:52;2.95;;;1.30;;
16845;SDS011;8539;53.188;8.696;2023-02-27T14:49:30;4.53;;;1.23;;
16845;SDS011;8539;53.188;8.696;2023-02-27T14:52:18;4.13;;;1.10;;
16845;SDS011;8539;53.188;8.696;2023-02-27T14:54:47;3.75;;;1.40;;
16845;SDS011;8539;53.188;8.696;2023-02-27T14:59:46;5.85;;;0.98;;
16845;SDS011;8539;53.188;8.696;2023-02-27T15:02:15;4.55;;;1.33;;
16845;SDS011;8539;53.188;8.696;2023-02-27T15:07:28;4.93;;;1.40;;
16845;SDS011;8539;53.188;8.696;2023-02-27T15:09:58;2.10;;;1.10;;
16845;SDS011;8539;53.188;8.696;2023-02-27T15:12:26;1.67;;;0.82;;
16845;SDS011;8539;53.188;8.696;2023-02-27T15:14:57;2.95;;;1.40;;
16845;SDS011;8539;53.188;8.696;2023-02-27T15:17:26;2.45;;;1.63;;
16845;SDS011;8539;53.188;8.696;2023-02-27T15:20:01;5.60;;;2.08;;
16845;SDS011;8539;53.188;8.696;2023-02-27T15:22:40;3.83;;;2.25;;
16845;SDS011;8539;53.188;8.696;2023-02-27T15:25:24;2.72;;;1.52;;
16845;SDS011;8539;53.188;8.696;2023-02-27T15:28:05;2.92;;;1.48;;
16845;SDS011;8539;53.188;8.696;2023-02-27T15:30:46;1.98;;;1.25;;
16845;SDS011;8539;53.188;8.696;2023-02-27T15:33:16;4.60;;;1.45;;
16845;SDS011;8539;53.188;8.696;2023-02-27T15:35:44;3.83;;;1.42;;
16845;SDS011;8539;53.188;8.696;2023-02-27T15:38:24;1.80;;;1.10;;
16845;SDS011;8539;53.188;8.696;2023-02-27T15:40:52;1.83;;;1.23;;
16845;SDS011;8539;53.188;8.696;2023-02-27T15:43:18;5.75;;;1.35;;
16845;SDS011;8539;53.188;8.696;2023-02-27T15:45:46;2.85;;;1.30;;
16845;SDS011;8539;53.188;8.696;2023-02-27T15:48:14;5.18;;;1.50;;
16845;SDS011;8539;53.188;8.696;2023-02-27T15:50:43;6.57;;;1.67;;
16845;SDS011;8539;53.188;8.696;2023-02-27T15:53:12;6.57;;;2.08;;
16845;SDS011;8539;53.188;8.696;2023-02-27T15:55:48;4.50;;;1.38;;
16845;SDS011;8539;53.188;8.696;2023-02-27T16:00:58;3.22;;;1.48;;
16845;SDS011;8539;53.188;8.696;2023-02-27T16:03:49;5.93;;;2.10;;
16845;SDS011;8539;53.188;8.696;2023-02-27T16:06:19;4.90;;;2.20;;
16845;SDS011;8539;53.188;8.696;2023-02-27T16:08:58;4.57;;;1.92;;
16845;SDS011;8539;53.188;8.696;2023-02-27T16:11:31;8.45;;;2.00;;
16845;SDS011;8539;53.188;8.696;2023-02-27T16:13:59;5.35;;;3.30;;
16845;SDS011;8539;53.188;8.696;2023-02-27T16:16:32;2.33;;;1.67;;
16845;SDS011;8539;53.188;8.696;2023-02-27T16:22:05;5.10;;;2.22;;
16845;SDS011;8539;53.188;8.696;2023-02-27T16:24:41;4.72;;;1.73;;
16845;SDS011;8539;53.188;8.696;2023-02-27T16:27:41;4.38;;;1.52;;
16845;SDS011;8539;53.188;8.696;2023-02-27T16:30:00;4.85;;;1.88;;
16845;SDS011;8539;53.188;8.696;2023-02-27T16:32:37;4.80;;;1.80;;
16845;SDS011;8539;53.188;8.696;2023-02-27T16:35:18;6.25;;;2.33;;
16845;SDS011;8539;53.188;8.696;2023-02-27T16:37:46;2.92;;;2.10;;
16845;SDS011;8539;53.188;8.696;2023-02-27T16:40:19;4.85;;;1.85;;
16845;SDS011;8539;53.188;8.696;2023-02-27T16:42:47;5.03;;;2.45;;
16845;SDS011;8539;53.188;8.696;2023-02-27T16:45:23;7.93;;;1.85;;
16845;SDS011;8539;53.188;8.696;2023-02-27T16:47:52;4.80;;;1.92;;
16845;SDS011;8539;53.188;8.696;2023-02-27T16:52:57;9.50;;;2.83;;
16845;SDS011;8539;53.188;8.696;2023-02-27T16:55:24;5.20;;;2.38;;
16845;SDS011;8539;53.188;8.696;2023-02-27T16:57:50;5.13;;;1.95;;
16845;SDS011;8539;53.188;8.696;2023-02-27T17:00:17;4.65;;;1.98;;
16845;SDS011;8539;53.188;8.696;2023-02-27T17:02:44;4.20;;;1.88;;
16845;SDS011;8539;53.188;8.696;2023-02-27T17:05:13;5.07;;;1.92;;
16845;SDS011;8539;53.188;8.696;2023-02-27T17:07:40;4.47;;;2.20;;
16845;SDS011;8539;53.188;8.696;2023-02-27T17:10:08;4.20;;;2.00;;
16845;SDS011;8539;53.188;8.696;2023-02-27T17:12:38;3.78;;;1.80;;
16845;SDS011;8539;53.188;8.696;2023-02-27T17:15:04;8.65;;;2.03;;
16845;SDS011;8539;53.188;8.696;2023-02-27T17:17:30;3.25;;;2.00;;
16845;SDS011;8539;53.188;8.696;2023-02-27T17:19:56;3.53;;;1.70;;
16845;SDS011;8539;53.188;8.696;2023-02-27T17:22:22;4.20;;;1.83;;
16845;SDS011;8539;53.188;8.696;2023-02-27T17:24:49;4.50;;;2.33;;
16845;SDS011;8539;53.188;8.696;2023-02-27T17:27:15;3.60;;;1.77;;
16845;SDS011;8539;53.188;8.696;2023-02-27T17:29:41;3.65;;;2.08;;
16845;SDS011;8539;53.188;8.696;2023-02-27T17:32:07;5.07;;;2.00;;
16845;SDS011;8539;53.188;8.696;2023-02-27T17:34:33;4.25;;;1.98;;
16845;SDS011;8539;53.188;8.696;2023-02-27T17:36:59;6.15;;;2.42;;
16845;SDS011;8539;53.188;8.696;2023-02-27T17:39:25;5.30;;;2.10;;
16845;SDS011;8539;53.188;8.696;2023-02-27T17:41:51;3.63;;;2.08;;
16845;SDS011;8539;53.188;8.696;2023-02-27T17:44:18;2.00;;;1.50;;
16845;SDS011;8539;53.188;8.696;2023-02-27T17:46:44;3.97;;;1.98;;
16845;SDS011;8539;53.188;8.696;2023-02-27T17:49:10;9.40;;;2.10;;
16845;SDS011;8539;53.188;8.696;2023-02-27T17:51:37;2.70;;;1.48;;
16845;SDS011;8539;53.188;8.696;2023-02-27T17:54:04;5.57;;;2.20;;
16845;SDS011;8539;53.188;8.696;2023-02-27T17:56:31;5.25;;;2.00;;
16845;SDS011;8539;53.188;8.696;2023-02-27T17:58:57;4.28;;;2.25;;
16845;SDS011;8539;53.188;8.696;2023-02-27T18:01:24;6.88;;;2.00;;
16845;SDS011;8539;53.188;8.696;2023-02-27T18:03:51;4.95;;;1.90;;
16845;SDS011;8539;53.188;8.696;2023-02-27T18:06:18;3.85;;;2.13;;
16845;SDS011;8539;53.188;8.696;2023-02-27T18:08:45;2.97;;;1.90;;
16845;SDS011;8539;53.188;8.696;2023-02-27T18:11:13;5.60;;;2.20;;
16845;SDS011;8539;53.188;8.696;2023-02-27T18:13:41;6.55;;;2.05;;
16845;SDS011;8539;53.188;8.696;2023-02-27T18:16:08;7.80;;;2.10;;
16845;SDS011;8539;53.188;8.696;2023-02-27T18:18:35;4.63;;;2.30;;
16845;SDS011;8539;53.188;8.696;2023-02-27T18:21:03;5.13;;;2.42;;
16845;SDS011;8539;53.188;8.696;2023-02-27T18:23:36;5.65;;;2.65;;
16845;SDS011;8539;53.188;8.696;2023-02-27T18:26:03;4.55;;;2.63;;